Thorndike, ME (04986)

11:14 PM EDT on July 24, 2016 (GMT -0400)
APRSWXNET | | Change Station

Elev 1056 ft 44.52 °N, 69.20 °W | Updated 36 minutes ago

Clear
Clear
69 °F
Feels Like 69 °F
N
2
Wind Variable Wind from NW
Gusts 0.0 mph

Today
High -- | Low -- °F
--% Chance of Precip.
Yesterday
High -- | Low -- °F
Precip. -- in
Pressure 30.04 in
Visibility 10.0 miles
Clouds Clear
Dew Point 57 °F
Humidity 65%
Rainfall in
Snow Depth Not available.
5:15 AM 8:11 PM
Waning Gibbous, 70% visible
METAR KWVL 250256Z AUTO 35004KT 10SM CLR 20/14 A2994 RMK AO2 SLP172 T02000144 50007
Pressure 30.04 in
Visibility 10.0 miles
Clouds Clear
Dew Point 57 °F
Humidity 65%
Rainfall in
Snow Depth Not available.
5:15 AM 8:11 PM
Waning Gibbous, 70% visible
METAR KWVL 250256Z AUTO 35004KT 10SM CLR 20/14 A2994 RMK AO2 SLP172 T02000144 50007

10-Day Weather Forecast

Almanac

Astronomy

Jul. 24, 2016 Rise Set
Actual Time
Civil Twilight
Nautical Twilight
Astronomical Twilight
Moon
Length of Visible Light
Length of Day
Tomorrow will be .
, % of the Moon is Illuminated

Today's Extremes

State Highs State Lows

Community

WunderPhotos

Upload Photos

1,927,253 photos uploaded!

WunderBlog® & News

Nearby

Air Quality

  Air Quality AQ Index Pollutant
Not available.

Snow Depth

Station Depth Elevation

Earthquake Activity

City Distance Mag. Time & Date
Minimum magnitude displayed is 2.5.

Coastal Water Temperatures

Place Temperature

Stations

Nearby Weather Stations

Station Location Temp. Windchill Dew Point Humidity Wind Precip. Elev Updated Type
                   

Watches & Warnings

There are currently no watches in effect.